Time,TemperatureF,DewpointF,PressureIn,WindDirection,WindDirectionDegrees,WindSpeedMPH,WindSpeedGustMPH,Humidity,HourlyPrecipIn,Conditions,Clouds,dailyrainin,SoftwareType,DateUTC
2013-09-20 00:11:00,53.0,47.0,29.74,SSE,165,0.0,-999.0,80,-99.99,,,-99.99,,2013-09-20 07:11:00,
2013-09-20 00:22:00,52.0,46.0,29.74,SSE,165,0.0,-999.0,81,-99.99,,,-99.99,,2013-09-20 07:22:00,
2013-09-20 00:42:00,52.0,46.0,29.74,SSE,165,0.0,-999.0,81,-99.99,,,-99.99,,2013-09-20 07:42:00,
2013-09-20 00:52:00,52.0,46.0,29.74,SSE,165,0.0,-999.0,81,-99.99,,,-99.99,,2013-09-20 07:52:00,
2013-09-20 01:11:00,51.0,46.0,29.74,SSE,165,0.0,-999.0,82,-99.99,,,-99.99,,2013-09-20 08:11:00,
2013-09-20 01:21:00,51.0,46.0,29.74,SSE,165,0.0,-999.0,83,-99.99,,,-99.99,,2013-09-20 08:21:00,
2013-09-20 01:52:00,50.0,46.0,29.75,SSE,165,0.0,-999.0,85,-99.99,,,-99.99,,2013-09-20 08:52:00,
2013-09-20 02:22:00,49.0,45.0,29.75,SSE,165,0.0,-999.0,86,-99.99,,,-99.99,,2013-09-20 09:22:00,
2013-09-20 02:43:00,49.0,45.0,29.75,SSE,165,0.0,-999.0,87,-99.99,,,-99.99,,2013-09-20 09:43:00,
2013-09-20 02:53:00,48.0,44.0,29.75,SSE,165,0.0,-999.0,87,-99.99,,,-99.99,,2013-09-20 09:53:00,
2013-09-20 03:12:00,48.0,45.0,29.74,SSE,165,0.0,-999.0,88,-99.99,,,-99.99,,2013-09-20 10:12:00,
2013-09-20 03:23:00,48.0,45.0,29.75,SSE,165,0.0,-999.0,89,-99.99,,,-99.99,,2013-09-20 10:23:00,
2013-09-20 03:42:00,48.0,45.0,29.75,SSE,165,0.0,-999.0,89,-99.99,,,-99.99,,2013-09-20 10:42:00,
2013-09-20 03:53:00,47.0,44.0,29.74,SSE,165,0.0,-999.0,89,-99.99,,,-99.99,,2013-09-20 10:53:00,
2013-09-20 04:11:00,47.0,44.0,29.74,SSE,165,0.0,-999.0,90,-99.99,,,-99.99,,2013-09-20 11:11:00,
2013-09-20 04:23:00,47.0,44.0,29.74,SSE,165,0.0,-999.0,90,-99.99,,,-99.99,,2013-09-20 11:23:00,
2013-09-20 04:42:00,47.0,45.0,29.74,SSE,165,0.0,-999.0,91,-99.99,,,-99.99,,2013-09-20 11:42:00,
2013-09-20 04:52:00,47.0,45.0,29.74,SSE,165,0.0,-999.0,91,-99.99,,,-99.99,,2013-09-20 11:52:00,
2013-09-20 05:12:00,47.0,45.0,29.74,SSE,165,0.0,-999.0,91,-99.99,,,-99.99,,2013-09-20 12:12:00,
2013-09-20 05:22:00,46.0,44.0,29.74,SSE,165,0.0,-999.0,91,-99.99,,,-99.99,,2013-09-20 12:22:00,
2013-09-20 06:52:00,46.0,44.0,29.75,SSE,165,0.0,-999.0,93,-99.99,,,-99.99,,2013-09-20 13:52:00,
2013-09-20 07:11:00,46.0,44.0,29.75,SSE,165,0.0,-999.0,93,-99.99,,,-99.99,,2013-09-20 14:11:00,
2013-09-20 07:21:00,46.0,44.0,29.76,SSE,165,0.0,-999.0,94,-99.99,,,-99.99,,2013-09-20 14:21:00,
2013-09-20 07:42:00,46.0,44.0,29.76,SSE,165,0.0,-999.0,94,-99.99,,,-99.99,,2013-09-20 14:42:00,
2013-09-20 07:52:00,47.0,45.0,29.77,SSE,165,0.0,-999.0,94,-99.99,,,-99.99,,2013-09-20 14:52:00,
2013-09-20 08:54:00,50.0,49.0,29.78,SSE,165,0.0,-999.0,96,-99.99,,,-99.99,,2013-09-20 15:54:00,
2013-09-20 09:13:00,53.0,52.0,29.78,SSE,165,0.0,-999.0,96,-99.99,,,-99.99,,2013-09-20 16:13:00,
2013-09-20 09:23:00,55.0,54.0,29.78,SSE,165,0.0,-999.0,96,-99.99,,,-99.99,,2013-09-20 16:23:00,
2013-09-20 09:42:00,60.0,56.0,29.79,South,178,0.0,-999.0,88,-99.99,,,-99.99,,2013-09-20 16:42:00,
2013-09-20 09:52:00,63.0,57.0,29.79,SSE,167,0.0,-999.0,81,-99.99,,,-99.99,,2013-09-20 16:52:00,
2013-09-20 10:13:00,67.0,58.0,29.80,South,182,0.0,-999.0,74,-99.99,,,-99.99,,2013-09-20 17:13:00,
2013-09-20 13:22:00,73.0,60.0,29.82,SE,135,2.0,-999.0,64,-99.99,,,-99.99,,2013-09-20 20:22:00,
2013-09-20 13:42:00,72.0,60.0,29.81,South,172,3.0,-999.0,67,-99.99,,,-99.99,,2013-09-20 20:42:00,
2013-09-20 13:52:00,71.0,60.0,29.82,SSE,150,2.0,-999.0,69,-99.99,,,-99.99,,2013-09-20 20:52:00,
2013-09-20 14:12:00,71.0,60.0,29.82,ESE,107,2.0,-999.0,69,-99.99,,,-99.99,,2013-09-20 21:12:00,
2013-09-20 14:21:00,70.0,61.0,29.82,ESE,111,2.0,-999.0,73,-99.99,,,-99.99,,2013-09-20 21:21:00,
2013-09-20 14:54:00,68.0,60.0,29.81,SSE,160,1.0,-999.0,75,-99.99,,,-99.99,,2013-09-20 21:54:00,
2013-09-20 15:14:00,68.0,61.0,29.81,West,261,1.0,-999.0,78,-99.99,,,-99.99,,2013-09-20 22:14:00,
2013-09-20 15:23:00,67.0,60.0,29.82,East,86,1.0,-999.0,78,-99.99,,,-99.99,,2013-09-20 22:23:00,
2013-09-20 15:43:00,67.0,61.0,29.83,West,267,1.0,-999.0,82,-99.99,,,-99.99,,2013-09-20 22:43:00,
2013-09-20 15:53:00,65.0,59.0,29.81,SSE,148,1.0,-999.0,81,-99.99,,,-99.99,,2013-09-20 22:53:00,
2013-09-20 16:12:00,64.0,59.0,29.81,ESE,121,1.0,-999.0,84,-99.99,,,-99.99,,2013-09-20 23:12:00,
2013-09-20 16:22:00,63.0,59.0,29.80,South,173,0.0,-999.0,86,-99.99,,,-99.99,,2013-09-20 23:22:00,
2013-09-20 16:53:00,63.0,59.0,29.81,SSE,155,1.0,-999.0,87,-99.99,,,-99.99,,2013-09-20 23:53:00,
2013-09-20 17:11:00,63.0,60.0,29.80,West,259,1.0,-999.0,89,-99.99,,,-99.99,,2013-09-21 00:11:00,
2013-09-20 17:21:00,62.0,59.0,29.80,SSE,150,0.0,-999.0,89,-99.99,,,-99.99,,2013-09-21 00:21:00,
2013-09-20 17:42:00,62.0,59.0,29.80,NW,317,0.0,-999.0,90,-99.99,,,-99.99,,2013-09-21 00:42:00,
2013-09-20 17:52:00,62.0,59.0,29.80,SSE,149,1.0,-999.0,90,-99.99,,,-99.99,,2013-09-21 00:52:00,
2013-09-20 18:12:00,62.0,59.0,29.80,ESE,111,0.0,-999.0,91,-99.99,,,-99.99,,2013-09-21 01:12:00,
2013-09-20 18:22:00,62.0,60.0,29.80,WSW,246,1.0,-999.0,92,-99.99,,,-99.99,,2013-09-21 01:22:00,
2013-09-20 18:42:00,61.0,59.0,29.79,SSW,202,0.0,-999.0,92,-99.99,,,-99.99,,2013-09-21 01:42:00,
2013-09-20 18:52:00,61.0,59.0,29.80,SSW,202,0.0,-999.0,92,-99.99,,,-99.99,,2013-09-21 01:52:00,
2013-09-20 19:12:00,61.0,59.0,29.80,WNW,282,0.0,-999.0,93,-99.99,,,-99.99,,2013-09-21 02:12:00,
2013-09-20 19:22:00,61.0,59.0,29.80,NW,308,0.0,-999.0,93,-99.99,,,-99.99,,2013-09-21 02:22:00,
2013-09-20 19:42:00,61.0,59.0,29.80,North,11,0.0,-999.0,93,-99.99,,,-99.99,,2013-09-21 02:42:00,
2013-09-20 19:52:00,61.0,59.0,29.80,West,268,1.0,-999.0,93,-99.99,,,-99.99,,2013-09-21 02:52:00,
2013-09-20 20:12:00,61.0,59.0,29.80,ESE,119,2.0,-999.0,93,-99.99,,,-99.99,,2013-09-21 03:12:00,
2013-09-20 20:22:00,61.0,59.0,29.80,SSW,209,0.0,-999.0,93,-99.99,,,-99.99,,2013-09-21 03:22:00,
2013-09-20 20:44:00,61.0,59.0,29.81,ESE,108,1.0,-999.0,92,-99.99,,,-99.99,,2013-09-21 03:44:00,
2013-09-20 20:54:00,61.0,59.0,29.81,SSE,156,1.0,-999.0,93,-99.99,,,-99.99,,2013-09-21 03:54:00,
2013-09-20 21:14:00,61.0,59.0,29.80,West,267,0.0,-999.0,93,-99.99,,,-99.99,,2013-09-21 04:14:00,
2013-09-20 21:24:00,61.0,59.0,29.81,NE,49,1.0,-999.0,93,-99.99,,,-99.99,,2013-09-21 04:24:00,
2013-09-20 21:54:00,61.0,59.0,29.81,South,180,1.0,-999.0,93,-99.99,,,-99.99,,2013-09-21 04:54:00,
2013-09-20 22:12:00,61.0,59.0,29.81,West,265,1.0,-999.0,93,-99.99,,,-99.99,,2013-09-21 05:12:00,
2013-09-20 22:23:00,61.0,59.0,29.81,WSW,250,1.0,-999.0,93,-99.99,,,-99.99,,2013-09-21 05:23:00,
2013-09-20 22:43:00,61.0,59.0,29.81,ENE,72,1.0,-999.0,94,-99.99,,,-99.99,,2013-09-21 05:43:00,
2013-09-20 22:52:00,61.0,59.0,29.81,SSE,159,0.0,-999.0,94,-99.99,,,-99.99,,2013-09-21 05:52:00,
2013-09-20 23:12:00,61.0,59.0,29.81,WSW,249,0.0,-999.0,94,-99.99,,,-99.99,,2013-09-21 06:12:00,
2013-09-20 23:22:00,61.0,59.0,29.80,East,90,0.0,-999.0,94,-99.99,,,-99.99,,2013-09-21 06:22:00,
2013-09-20 23:42:00,62.0,61.0,29.80,ENE,61,1.0,-999.0,95,-99.99,,,-99.99,,2013-09-21 06:42:00,
2013-09-20 23:52:00,62.0,61.0,29.80,WSW,250,1.0,-999.0,95,-99.99,,,-99.99,,2013-09-21 06:52:00,